sensor_id;sensor_type;location;lat;lon;timestamp;P1;durP1;ratioP1;P2;durP2;ratioP2
40588;SDS011;26297;49.450;6.640;2022-10-20T04:03:47;5.78;;;5.00;;
40588;SDS011;26297;49.450;6.640;2022-10-20T04:06:53;6.30;;;4.95;;
40588;SDS011;26297;49.450;6.640;2022-10-20T04:09:59;8.60;;;4.30;;
40588;SDS011;26297;49.450;6.640;2022-10-20T04:13:05;5.35;;;4.70;;
40588;SDS011;26297;49.450;6.640;2022-10-20T04:16:12;6.57;;;4.38;;
40588;SDS011;26297;49.450;6.640;2022-10-20T04:19:21;6.10;;;4.63;;
40588;SDS011;26297;49.450;6.640;2022-10-20T04:22:33;5.65;;;3.65;;
40588;SDS011;26297;49.450;6.640;2022-10-20T04:25:52;6.57;;;4.18;;
40588;SDS011;26297;49.450;6.640;2022-10-20T04:29:05;4.65;;;4.15;;
40588;SDS011;26297;49.450;6.640;2022-10-20T04:32:41;7.33;;;3.83;;
40588;SDS011;26297;49.450;6.640;2022-10-20T04:35:54;5.25;;;4.22;;
40588;SDS011;26297;49.450;6.640;2022-10-20T04:43:41;9.18;;;5.30;;
40588;SDS011;26297;49.450;6.640;2022-10-20T04:54:49;6.13;;;4.80;;
40588;SDS011;26297;49.450;6.640;2022-10-20T04:58:05;7.18;;;4.88;;
40588;SDS011;26297;49.450;6.640;2022-10-20T05:01:13;5.50;;;4.32;;
40588;SDS011;26297;49.450;6.640;2022-10-20T05:20:07;10.70;;;5.82;;
40588;SDS011;26297;49.450;6.640;2022-10-20T05:27:15;8.95;;;6.18;;
40588;SDS011;26297;49.450;6.640;2022-10-20T05:34:05;8.93;;;6.03;;
40588;SDS011;26297;49.450;6.640;2022-10-20T05:44:32;9.73;;;5.47;;
40588;SDS011;26297;49.450;6.640;2022-10-20T05:47:38;10.68;;;5.30;;
40588;SDS011;26297;49.450;6.640;2022-10-20T05:50:42;12.15;;;5.97;;
40588;SDS011;26297;49.450;6.640;2022-10-20T05:53:45;8.30;;;6.40;;
40588;SDS011;26297;49.450;6.640;2022-10-20T05:56:58;8.13;;;5.75;;
40588;SDS011;26297;49.450;6.640;2022-10-20T06:00:05;7.90;;;5.50;;
40588;SDS011;26297;49.450;6.640;2022-10-20T06:03:17;7.88;;;5.88;;
40588;SDS011;26297;49.450;6.640;2022-10-20T06:06:27;7.28;;;3.70;;
40588;SDS011;26297;49.450;6.640;2022-10-20T06:09:34;7.80;;;5.80;;
40588;SDS011;26297;49.450;6.640;2022-10-20T06:12:47;9.23;;;6.28;;
40588;SDS011;26297;49.450;6.640;2022-10-20T06:16:10;8.75;;;6.00;;
40588;SDS011;26297;49.450;6.640;2022-10-20T06:19:19;12.35;;;5.82;;
40588;SDS011;26297;49.450;6.640;2022-10-20T06:22:22;9.45;;;5.38;;
40588;SDS011;26297;49.450;6.640;2022-10-20T06:25:26;6.20;;;4.60;;
40588;SDS011;26297;49.450;6.640;2022-10-20T06:28:30;10.18;;;6.05;;
40588;SDS011;26297;49.450;6.640;2022-10-20T06:31:35;9.68;;;5.32;;
40588;SDS011;26297;49.450;6.640;2022-10-20T06:38:29;11.73;;;6.32;;
40588;SDS011;26297;49.450;6.640;2022-10-20T06:41:51;7.22;;;5.03;;
40588;SDS011;26297;49.450;6.640;2022-10-20T06:48:43;9.05;;;5.10;;
40588;SDS011;26297;49.450;6.640;2022-10-20T06:52:04;5.63;;;4.32;;
40588;SDS011;26297;49.450;6.640;2022-10-20T06:55:32;9.80;;;5.65;;
40588;SDS011;26297;49.450;6.640;2022-10-20T06:59:04;11.38;;;4.97;;
40588;SDS011;26297;49.450;6.640;2022-10-20T07:02:26;7.75;;;5.20;;
40588;SDS011;26297;49.450;6.640;2022-10-20T07:05:30;8.50;;;5.32;;
40588;SDS011;26297;49.450;6.640;2022-10-20T07:20:40;6.43;;;5.30;;
40588;SDS011;26297;49.450;6.640;2022-10-20T07:23:59;7.75;;;4.57;;
40588;SDS011;26297;49.450;6.640;2022-10-20T07:27:12;7.22;;;4.90;;
40588;SDS011;26297;49.450;6.640;2022-10-20T07:36:15;6.47;;;5.23;;
40588;SDS011;26297;49.450;6.640;2022-10-20T07:39:59;9.50;;;5.80;;
40588;SDS011;26297;49.450;6.640;2022-10-20T07:43:19;7.20;;;4.82;;
40588;SDS011;26297;49.450;6.640;2022-10-20T07:50:48;9.52;;;5.22;;
40588;SDS011;26297;49.450;6.640;2022-10-20T07:57:18;8.73;;;5.82;;
40588;SDS011;26297;49.450;6.640;2022-10-20T08:03:45;6.13;;;4.57;;
40588;SDS011;26297;49.450;6.640;2022-10-20T08:06:53;6.72;;;4.18;;
40588;SDS011;26297;49.450;6.640;2022-10-20T08:14:05;8.18;;;5.03;;
40588;SDS011;26297;49.450;6.640;2022-10-20T08:17:38;8.55;;;6.30;;
40588;SDS011;26297;49.450;6.640;2022-10-20T08:20:49;7.40;;;5.28;;
40588;SDS011;26297;49.450;6.640;2022-10-20T08:32:22;7.93;;;5.07;;
40588;SDS011;26297;49.450;6.640;2022-10-20T08:39:29;7.22;;;4.18;;
40588;SDS011;26297;49.450;6.640;2022-10-20T08:42:39;6.63;;;4.80;;
40588;SDS011;26297;49.450;6.640;2022-10-20T08:45:54;9.63;;;5.55;;
40588;SDS011;26297;49.450;6.640;2022-10-20T08:49:20;7.85;;;5.18;;
40588;SDS011;26297;49.450;6.640;2022-10-20T08:52:46;6.82;;;4.53;;
40588;SDS011;26297;49.450;6.640;2022-10-20T08:56:26;5.20;;;4.45;;
40588;SDS011;26297;49.450;6.640;2022-10-20T09:03:22;6.97;;;4.13;;
40588;SDS011;26297;49.450;6.640;2022-10-20T09:06:37;8.68;;;5.10;;
40588;SDS011;26297;49.450;6.640;2022-10-20T09:10:01;5.70;;;4.18;;
40588;SDS011;26297;49.450;6.640;2022-10-20T09:13:43;9.25;;;4.30;;
40588;SDS011;26297;49.450;6.640;2022-10-20T09:17:00;7.10;;;4.78;;
40588;SDS011;26297;49.450;6.640;2022-10-20T09:20:11;8.45;;;4.47;;
40588;SDS011;26297;49.450;6.640;2022-10-20T09:23:37;8.52;;;4.68;;
40588;SDS011;26297;49.450;6.640;2022-10-20T09:26:49;8.35;;;4.22;;
40588;SDS011;26297;49.450;6.640;2022-10-20T09:30:04;8.15;;;5.22;;
40588;SDS011;26297;49.450;6.640;2022-10-20T09:33:31;7.82;;;5.28;;
40588;SDS011;26297;49.450;6.640;2022-10-20T09:37:18;7.78;;;4.40;;
40588;SDS011;26297;49.450;6.640;2022-10-20T09:40:56;8.40;;;4.65;;
40588;SDS011;26297;49.450;6.640;2022-10-20T09:44:17;4.82;;;3.90;;
40588;SDS011;26297;49.450;6.640;2022-10-20T09:47:45;6.28;;;4.55;;
40588;SDS011;26297;49.450;6.640;2022-10-20T09:51:03;7.47;;;4.75;;
40588;SDS011;26297;49.450;6.640;2022-10-20T09:54:26;8.23;;;5.82;;
40588;SDS011;26297;49.450;6.640;2022-10-20T09:57:33;9.32;;;5.75;;
40588;SDS011;26297;49.450;6.640;2022-10-20T10:00:45;6.60;;;4.85;;
40588;SDS011;26297;49.450;6.640;2022-10-20T10:04:00;8.32;;;5.55;;
40588;SDS011;26297;49.450;6.640;2022-10-20T10:10:33;7.50;;;4.85;;
40588;SDS011;26297;49.450;6.640;2022-10-20T10:13:40;6.22;;;4.47;;
40588;SDS011;26297;49.450;6.640;2022-10-20T10:16:55;11.05;;;6.55;;
40588;SDS011;26297;49.450;6.640;2022-10-20T10:20:06;10.68;;;5.75;;
40588;SDS011;26297;49.450;6.640;2022-10-20T10:23:26;7.78;;;5.30;;
40588;SDS011;26297;49.450;6.640;2022-10-20T10:33:38;6.30;;;4.65;;
40588;SDS011;26297;49.450;6.640;2022-10-20T10:37:20;7.22;;;4.00;;
40588;SDS011;26297;49.450;6.640;2022-10-20T10:44:32;7.60;;;3.65;;
40588;SDS011;26297;49.450;6.640;2022-10-20T10:59:34;6.13;;;4.07;;
40588;SDS011;26297;49.450;6.640;2022-10-20T11:03:03;10.57;;;5.57;;
40588;SDS011;26297;49.450;6.640;2022-10-20T11:29:51;7.15;;;4.63;;
40588;SDS011;26297;49.450;6.640;2022-10-20T11:33:15;8.05;;;4.32;;
40588;SDS011;26297;49.450;6.640;2022-10-20T11:36:24;11.38;;;4.47;;
40588;SDS011;26297;49.450;6.640;2022-10-20T11:43:18;8.75;;;4.50;;
40588;SDS011;26297;49.450;6.640;2022-10-20T11:49:52;5.93;;;4.05;;
40588;SDS011;26297;49.450;6.640;2022-10-20T11:56:24;8.55;;;4.43;;
40588;SDS011;26297;49.450;6.640;2022-10-20T12:03:04;7.32;;;4.13;;
40588;SDS011;26297;49.450;6.640;2022-10-20T12:10:17;6.90;;;4.05;;
40588;SDS011;26297;49.450;6.640;2022-10-20T12:44:03;5.85;;;4.00;;
40588;SDS011;26297;49.450;6.640;2022-10-20T12:47:28;8.15;;;4.32;;
40588;SDS011;26297;49.450;6.640;2022-10-20T12:50:45;4.82;;;3.97;;
40588;SDS011;26297;49.450;6.640;2022-10-20T12:54:23;5.93;;;3.83;;
40588;SDS011;26297;49.450;6.640;2022-10-20T12:57:39;6.53;;;4.22;;
40588;SDS011;26297;49.450;6.640;2022-10-20T13:04:14;9.00;;;3.53;;
40588;SDS011;26297;49.450;6.640;2022-10-20T14:08:43;5.78;;;4.18;;
40588;SDS011;26297;49.450;6.640;2022-10-20T14:12:03;6.57;;;4.43;;
40588;SDS011;26297;49.450;6.640;2022-10-20T14:22:50;7.43;;;4.63;;
40588;SDS011;26297;49.450;6.640;2022-10-20T14:29:42;5.70;;;4.03;;
40588;SDS011;26297;49.450;6.640;2022-10-20T14:32:58;9.57;;;4.32;;
40588;SDS011;26297;49.450;6.640;2022-10-20T14:36:21;6.15;;;4.97;;
40588;SDS011;26297;49.450;6.640;2022-10-20T15:09:22;7.50;;;4.30;;
40588;SDS011;26297;49.450;6.640;2022-10-20T15:15:41;7.00;;;4.60;;
40588;SDS011;26297;49.450;6.640;2022-10-20T15:18:44;10.75;;;5.60;;
40588;SDS011;26297;49.450;6.640;2022-10-20T15:21:55;8.48;;;6.00;;
40588;SDS011;26297;49.450;6.640;2022-10-20T15:25:12;15.65;;;7.30;;
40588;SDS011;26297;49.450;6.640;2022-10-20T15:28:58;9.80;;;6.10;;
40588;SDS011;26297;49.450;6.640;2022-10-20T15:32:04;9.82;;;6.20;;
40588;SDS011;26297;49.450;6.640;2022-10-20T15:35:11;11.73;;;5.97;;
40588;SDS011;26297;49.450;6.640;2022-10-20T15:46:00;9.68;;;5.72;;
40588;SDS011;26297;49.450;6.640;2022-10-20T15:49:08;10.13;;;5.60;;
40588;SDS011;26297;49.450;6.640;2022-10-20T15:56:37;9.75;;;5.40;;
40588;SDS011;26297;49.450;6.640;2022-10-20T15:59:49;10.50;;;5.28;;
40588;SDS011;26297;49.450;6.640;2022-10-20T16:05:37;8.13;;;5.05;;
40588;SDS011;26297;49.450;6.640;2022-10-20T16:11:59;11.80;;;4.43;;
40588;SDS011;26297;49.450;6.640;2022-10-20T16:15:09;7.68;;;4.50;;
40588;SDS011;26297;49.450;6.640;2022-10-20T16:19:16;7.55;;;4.03;;
40588;SDS011;26297;49.450;6.640;2022-10-20T16:26:16;7.32;;;4.13;;
40588;SDS011;26297;49.450;6.640;2022-10-20T16:29:23;8.07;;;3.63;;
40588;SDS011;26297;49.450;6.640;2022-10-20T16:32:35;8.02;;;3.92;;
40588;SDS011;26297;49.450;6.640;2022-10-20T16:36:03;4.45;;;3.47;;
40588;SDS011;26297;49.450;6.640;2022-10-20T16:39:20;5.53;;;3.85;;
40588;SDS011;26297;49.450;6.640;2022-10-20T16:42:33;4.82;;;3.67;;
40588;SDS011;26297;49.450;6.640;2022-10-20T16:49:59;7.90;;;3.88;;
40588;SDS011;26297;49.450;6.640;2022-10-20T16:53:07;6.85;;;3.78;;
40588;SDS011;26297;49.450;6.640;2022-10-20T17:05:04;8.98;;;3.33;;
40588;SDS011;26297;49.450;6.640;2022-10-20T18:11:51;8.60;;;4.10;;
40588;SDS011;26297;49.450;6.640;2022-10-20T20:15:14;9.10;;;4.55;;
40588;SDS011;26297;49.450;6.640;2022-10-20T20:18:17;5.65;;;3.25;;
40588;SDS011;26297;49.450;6.640;2022-10-20T20:21:20;4.85;;;3.47;;
40588;SDS011;26297;49.450;6.640;2022-10-20T20:24:24;10.15;;;3.88;;
40588;SDS011;26297;49.450;6.640;2022-10-20T20:27:27;7.38;;;3.65;;
40588;SDS011;26297;49.450;6.640;2022-10-20T20:30:31;7.05;;;3.28;;
40588;SDS011;26297;49.450;6.640;2022-10-20T20:37:40;3.90;;;2.47;;
40588;SDS011;26297;49.450;6.640;2022-10-20T20:40:46;8.98;;;3.50;;
40588;SDS011;26297;49.450;6.640;2022-10-20T20:43:51;4.57;;;3.33;;
40588;SDS011;26297;49.450;6.640;2022-10-20T20:46:54;8.98;;;4.10;;
40588;SDS011;26297;49.450;6.640;2022-10-20T20:49:57;6.15;;;3.67;;
40588;SDS011;26297;49.450;6.640;2022-10-20T20:53:02;5.88;;;4.10;;
40588;SDS011;26297;49.450;6.640;2022-10-20T20:56:09;8.73;;;3.88;;
40588;SDS011;26297;49.450;6.640;2022-10-20T20:59:13;4.80;;;3.10;;
